Portada
METAR-TAF:

METAR-TAF

Aeroports :

Jasper, Geòrgia, Estats Units d'Amèrica

latitud: 34-27-12N, longitud: 084-27-26W, altitud: 468 m

Observació

L'informe es va fer fa 21 minuts, a les 02:15 UTC
Vent calma
Temperatura 4°C
Humitat 100%
Pressió 1016 hPa
Cel cobert a una alçada de 100 ft
boira

METAR: KJZP 250215Z AUTO 00000KT M1/4SM FG OVC001 04/04 A2999 RMK AO2 T00410040

Hora: 21:36 (02:36 UTC)


TAF: manca

Observacions i pronòstics meteorològics de més de 4000 aeroports (METAR i TAF).

Les estacions disponibles són els punts grocs i vermells al mapa.

Posi el ratolí al punt desitjat per veure el nom de l'estació.

Feu clic per veure les observacions i els pronòstics meteorològics.

Per canviar el mapa: feu clic els botons verds amb una creu de color negre per apropar; al botó verd amb un guió per allunyar la imatge; o en les fletxes verdes per a mapes adjacents.


METAR-TAF: